createdAt,value
2018-04-19T00:00:19.659Z,11.79
2018-04-19T00:02:45.405Z,11.81
2018-04-19T00:05:11.171Z,11.75
2018-04-19T00:07:36.923Z,11.76
2018-04-19T00:10:02.669Z,11.83
2018-04-19T00:12:28.432Z,11.83
2018-04-19T00:14:54.198Z,11.85
2018-04-19T00:17:19.936Z,11.68
2018-04-19T00:19:45.680Z,11.64
2018-04-19T00:22:11.460Z,11.61
2018-04-19T00:24:37.188Z,11.45
2018-04-19T00:27:02.935Z,11.43
2018-04-19T00:29:28.711Z,11.41
2018-04-19T00:31:54.449Z,11.31
2018-04-19T00:34:20.208Z,11.20
2018-04-19T00:36:45.952Z,11.20
2018-04-19T00:39:11.713Z,11.19
2018-04-19T00:41:37.465Z,11.16
2018-04-19T00:44:03.230Z,11.11
2018-04-19T00:46:28.976Z,11.11
2018-04-19T00:48:54.741Z,11.12
2018-04-19T00:51:20.482Z,11.06
2018-04-19T00:53:46.249Z,11.02
2018-04-19T00:56:12.000Z,11.01
2018-04-19T00:58:37.744Z,10.90
2018-04-19T01:01:03.490Z,10.86
2018-04-19T01:03:29.245Z,10.82
2018-04-19T01:05:54.984Z,10.82
2018-04-19T01:08:20.716Z,10.87
2018-04-19T01:10:46.456Z,10.92
2018-04-19T01:13:12.226Z,10.87
2018-04-19T01:15:37.984Z,10.86
2018-04-19T01:18:03.732Z,10.88
2018-04-19T01:20:29.501Z,10.93
2018-04-19T01:22:55.237Z,10.98
2018-04-19T01:25:20.988Z,10.93
2018-04-19T01:27:46.727Z,10.96
2018-04-19T01:30:12.471Z,10.91
2018-04-19T01:32:38.208Z,10.90
2018-04-19T01:35:03.954Z,10.83
2018-04-19T01:37:29.693Z,10.71
2018-04-19T01:39:55.460Z,10.64
2018-04-19T01:42:21.197Z,10.62
2018-04-19T01:44:46.960Z,10.84
2018-04-19T01:47:12.706Z,10.86
2018-04-19T01:49:38.456Z,10.88
2018-04-19T01:52:04.218Z,10.78
2018-04-19T01:54:29.944Z,10.82
2018-04-19T01:56:55.685Z,10.75
2018-04-19T01:59:21.409Z,10.67
2018-04-19T02:01:47.160Z,10.68
2018-04-19T02:04:12.900Z,10.57
2018-04-19T02:06:38.653Z,10.65
2018-04-19T02:09:04.400Z,10.72
2018-04-19T02:11:30.152Z,10.91
2018-04-19T02:13:55.901Z,10.85
2018-04-19T02:16:21.648Z,10.81
2018-04-19T02:18:47.381Z,10.79
2018-04-19T02:21:13.116Z,10.83
2018-04-19T02:23:38.849Z,10.86
2018-04-19T02:26:04.599Z,10.85
2018-04-19T02:28:30.345Z,10.84
2018-04-19T02:30:56.080Z,10.76
2018-04-19T02:33:21.817Z,10.65
2018-04-19T02:35:47.602Z,10.72
2018-04-19T02:38:13.334Z,10.80
2018-04-19T02:40:39.069Z,10.77
2018-04-19T02:43:04.811Z,10.67
2018-04-19T02:45:30.556Z,10.56
2018-04-19T02:47:56.296Z,10.51
2018-04-19T02:50:22.048Z,10.48
2018-04-19T02:52:47.791Z,10.50
2018-04-19T02:55:13.526Z,10.50
2018-04-19T02:57:39.275Z,10.51
2018-04-19T03:00:05.024Z,10.47
2018-04-19T03:02:30.768Z,10.37
2018-04-19T03:04:56.511Z,10.37
2018-04-19T03:07:22.271Z,10.40
2018-04-19T03:09:48.020Z,10.41
2018-04-19T03:12:13.768Z,10.30
2018-04-19T03:14:39.511Z,10.20
2018-04-19T03:17:05.258Z,10.08
2018-04-19T03:19:31.025Z,10.16
2018-04-19T03:21:56.768Z,10.15
2018-04-19T03:24:22.531Z,10.21
2018-04-19T03:26:48.279Z,10.20
2018-04-19T03:29:14.032Z,10.31
2018-04-19T03:31:39.775Z,10.26
2018-04-19T03:34:05.525Z,10.10
2018-04-19T03:36:31.259Z,10.03
2018-04-19T03:38:56.997Z,10.05
2018-04-19T03:41:22.744Z,9.99
2018-04-19T03:43:48.492Z,10.07
2018-04-19T03:46:14.233Z,9.96
2018-04-19T03:48:39.993Z,9.87
2018-04-19T03:51:05.740Z,9.84
2018-04-19T03:53:31.485Z,9.92
2018-04-19T03:55:57.220Z,9.89
2018-04-19T03:58:22.980Z,9.89
2018-04-19T04:00:48.724Z,9.86
2018-04-19T04:03:14.466Z,9.97
2018-04-19T04:05:40.217Z,9.96
2018-04-19T04:08:05.949Z,10.04
2018-04-19T04:10:31.689Z,9.94
2018-04-19T04:12:57.428Z,9.85
2018-04-19T04:15:23.185Z,9.84
2018-04-19T04:18:01.456Z,9.96
2018-04-19T04:20:39.460Z,10.03
2018-04-19T04:23:21.580Z,9.98
2018-04-19T04:25:47.333Z,10.03
2018-04-19T04:28:13.072Z,10.09
2018-04-19T04:30:39.608Z,10.28
2018-04-19T04:33:05.348Z,10.23
2018-04-19T04:35:31.109Z,10.21
2018-04-19T04:37:56.856Z,10.29
2018-04-19T04:40:22.616Z,10.31
2018-04-19T04:42:48.353Z,10.39
2018-04-19T04:45:14.091Z,10.43
2018-04-19T04:47:39.843Z,10.58
2018-04-19T04:50:05.602Z,10.61
2018-04-19T04:52:31.340Z,10.64
2018-04-19T04:54:57.080Z,10.62
2018-04-19T04:57:22.819Z,10.58
2018-04-19T04:59:48.579Z,10.66
2018-04-19T05:02:14.325Z,10.71
2018-04-19T05:04:40.063Z,10.72
2018-04-19T05:07:05.824Z,10.74
2018-04-19T05:09:31.571Z,10.73
2018-04-19T05:11:57.325Z,10.86
2018-04-19T05:14:23.158Z,10.84
2018-04-19T05:16:48.826Z,10.86
2018-04-19T05:19:14.552Z,11.01
2018-04-19T05:21:40.300Z,11.05
2018-04-19T05:24:06.031Z,11.16
2018-04-19T05:26:31.776Z,11.28
2018-04-19T05:28:57.522Z,11.33
2018-04-19T05:31:23.272Z,11.41
2018-04-19T05:33:49.008Z,11.56
2018-04-19T05:36:14.744Z,11.66
2018-04-19T05:38:40.502Z,11.73
2018-04-19T05:41:06.240Z,11.92
2018-04-19T05:43:31.964Z,12.06
2018-04-19T05:45:57.708Z,12.26
2018-04-19T05:48:23.454Z,12.38
2018-04-19T05:50:49.221Z,12.60
2018-04-19T05:53:14.960Z,12.67
2018-04-19T05:55:40.691Z,12.83
2018-04-19T05:58:13.497Z,12.96
2018-04-19T06:00:39.244Z,13.08
2018-04-19T06:03:05.039Z,13.21
2018-04-19T06:05:30.712Z,13.37
2018-04-19T06:07:56.474Z,13.39
2018-04-19T06:10:22.210Z,13.61
2018-04-19T06:12:47.966Z,13.75
2018-04-19T06:15:13.715Z,13.82
2018-04-19T06:17:39.463Z,14.04
2018-04-19T06:20:05.210Z,14.08
2018-04-19T06:22:30.969Z,14.24
2018-04-19T06:24:56.761Z,14.31
2018-04-19T06:27:22.456Z,14.54
2018-04-19T06:29:48.188Z,14.65
2018-04-19T06:32:13.940Z,14.74
2018-04-19T06:34:39.691Z,14.78
2018-04-19T06:37:05.428Z,15.05
2018-04-19T06:39:31.173Z,15.23
2018-04-19T06:41:56.921Z,15.38
2018-04-19T06:44:22.682Z,15.47
2018-04-19T06:46:48.421Z,15.53
2018-04-19T06:49:14.156Z,15.76
2018-04-19T06:51:39.892Z,15.89
2018-04-19T06:54:05.636Z,16.07
2018-04-19T06:56:31.364Z,16.19
2018-04-19T06:58:57.098Z,16.32
2018-04-19T07:01:22.832Z,16.46
2018-04-19T07:03:48.576Z,16.71
2018-04-19T07:06:14.303Z,16.80
2018-04-19T07:08:40.062Z,16.92
2018-04-19T07:11:05.804Z,17.12
2018-04-19T07:13:31.546Z,17.31
2018-04-19T07:15:57.284Z,17.31
2018-04-19T07:18:23.024Z,17.63
2018-04-19T07:20:48.760Z,17.76
2018-04-19T07:23:14.507Z,17.92
2018-04-19T07:25:40.236Z,18.10
2018-04-19T07:28:13.004Z,18.41
2018-04-19T07:30:38.755Z,18.44
2018-04-19T07:33:04.488Z,18.65
2018-04-19T07:35:30.233Z,18.68
2018-04-19T07:37:55.965Z,18.99
2018-04-19T07:40:21.720Z,19.24
2018-04-19T07:42:47.446Z,19.42
2018-04-19T07:45:13.206Z,19.52
2018-04-19T07:47:38.940Z,19.38
2018-04-19T07:50:04.712Z,19.70
2018-04-19T07:52:30.462Z,19.75
2018-04-19T07:54:56.210Z,19.78
2018-04-19T07:57:21.951Z,19.77
2018-04-19T07:59:47.704Z,19.99
2018-04-19T08:02:13.448Z,20.16
2018-04-19T08:04:39.200Z,20.23
2018-04-19T08:07:04.929Z,20.22
2018-04-19T08:09:30.707Z,20.25
2018-04-19T08:11:56.449Z,20.18
2018-04-19T08:14:22.180Z,20.75
2018-04-19T08:16:47.937Z,20.52
2018-04-19T08:19:13.673Z,20.56
2018-04-19T08:21:39.419Z,20.86
2018-04-19T08:24:05.154Z,20.75
2018-04-19T08:26:30.916Z,20.79
2018-04-19T08:28:56.647Z,21.05
2018-04-19T08:31:22.417Z,21.23
2018-04-19T08:33:48.146Z,21.40
2018-04-19T08:36:13.908Z,21.67
2018-04-19T08:38:39.665Z,21.70
2018-04-19T08:41:05.415Z,21.84
2018-04-19T08:43:31.144Z,21.99
2018-04-19T08:45:56.892Z,21.82
2018-04-19T08:48:22.637Z,21.61
2018-04-19T08:50:48.388Z,21.74
2018-04-19T08:53:14.134Z,22.17
2018-04-19T08:55:39.868Z,21.94
2018-04-19T08:58:05.604Z,22.07
2018-04-19T09:00:31.324Z,22.06
2018-04-19T09:02:57.106Z,22.18
2018-04-19T09:05:22.837Z,22.31
2018-04-19T09:07:48.581Z,22.50
2018-04-19T09:10:14.330Z,23.03
2018-04-19T09:12:40.089Z,23.35
2018-04-19T09:15:05.824Z,22.93
2018-04-19T09:17:31.584Z,23.10
2018-04-19T09:19:57.328Z,23.21
2018-04-19T09:22:23.148Z,23.31
2018-04-19T09:24:48.836Z,23.45
2018-04-19T09:27:14.568Z,23.42
2018-04-19T09:29:40.319Z,23.19
2018-04-19T09:32:06.061Z,23.23
2018-04-19T09:34:31.827Z,23.47
2018-04-19T09:36:57.568Z,23.66
2018-04-19T09:39:23.306Z,23.92
2018-04-19T09:41:49.057Z,23.55
2018-04-19T09:44:14.814Z,23.65
2018-04-19T09:46:40.608Z,23.69
2018-04-19T09:49:06.320Z,23.95
2018-04-19T09:51:32.071Z,23.92
2018-04-19T09:53:57.863Z,23.87
2018-04-19T09:56:23.572Z,24.12
2018-04-19T09:59:01.735Z,24.18
2018-04-19T10:01:27.481Z,24.05
2018-04-19T10:03:53.243Z,24.01
2018-04-19T10:06:18.969Z,23.89
2018-04-19T10:08:44.720Z,23.94
2018-04-19T10:11:10.470Z,24.25
2018-04-19T10:13:36.207Z,24.27
2018-04-19T10:16:02.028Z,24.38
2018-04-19T10:18:27.707Z,24.50
2018-04-19T10:20:53.472Z,24.56
2018-04-19T10:23:19.218Z,24.27
2018-04-19T10:25:44.973Z,24.57
2018-04-19T10:28:10.710Z,24.52
2018-04-19T10:30:36.449Z,24.87
2018-04-19T10:33:02.218Z,24.88
2018-04-19T10:35:27.972Z,25.34
2018-04-19T10:37:53.712Z,24.69
2018-04-19T10:40:19.461Z,24.98
2018-04-19T10:42:45.203Z,24.63
2018-04-19T10:45:10.955Z,25.01
2018-04-19T10:47:36.700Z,24.54
2018-04-19T10:50:02.452Z,24.93
2018-04-19T10:52:28.193Z,24.70
2018-04-19T10:54:53.958Z,24.42
2018-04-19T10:57:19.695Z,25.12
2018-04-19T10:59:45.441Z,25.48
2018-04-19T11:02:11.193Z,25.21
2018-04-19T11:04:36.942Z,24.87
2018-04-19T11:07:02.704Z,25.51
2018-04-19T11:09:28.449Z,25.96
2018-04-19T11:11:54.205Z,25.28
2018-04-19T11:14:19.947Z,24.98
2018-04-19T11:16:45.709Z,25.24
2018-04-19T11:19:11.461Z,25.22
2018-04-19T11:21:37.205Z,25.86
2018-04-19T11:24:02.940Z,26.31
2018-04-19T11:26:28.681Z,25.76
2018-04-19T11:28:54.432Z,25.42
2018-04-19T11:31:20.193Z,25.71
2018-04-19T11:33:45.929Z,25.69
2018-04-19T11:36:11.682Z,25.72
2018-04-19T11:38:37.411Z,25.97
2018-04-19T11:41:03.163Z,25.56
2018-04-19T11:43:28.922Z,25.59
2018-04-19T11:45:54.661Z,26.19
2018-04-19T11:48:20.412Z,26.14
2018-04-19T11:50:46.148Z,25.84
2018-04-19T11:53:11.908Z,26.16
2018-04-19T11:55:37.656Z,26.08
2018-04-19T11:58:03.393Z,26.14
2018-04-19T12:00:29.139Z,26.24
2018-04-19T12:02:54.892Z,26.52
2018-04-19T12:05:20.644Z,27.19
2018-04-19T12:07:46.396Z,26.98
2018-04-19T12:10:12.145Z,27.03
2018-04-19T12:12:37.892Z,26.31
2018-04-19T12:15:03.638Z,26.89
2018-04-19T12:17:29.393Z,27.05
2018-04-19T12:19:55.148Z,26.98
2018-04-19T12:22:20.887Z,27.15
2018-04-19T12:24:46.649Z,27.17
2018-04-19T12:27:12.400Z,27.02
2018-04-19T12:29:38.165Z,26.84
2018-04-19T12:32:03.917Z,26.66
2018-04-19T12:34:29.662Z,26.87
2018-04-19T12:36:55.415Z,27.19
2018-04-19T12:39:21.148Z,26.71
2018-04-19T12:41:46.896Z,26.93
2018-04-19T12:44:12.660Z,26.83
2018-04-19T12:46:38.418Z,26.64
2018-04-19T12:49:04.169Z,27.02
2018-04-19T12:51:29.928Z,26.18
2018-04-19T12:53:55.677Z,25.98
2018-04-19T12:56:21.407Z,26.36
2018-04-19T12:58:47.165Z,26.69
2018-04-19T13:01:12.916Z,26.60
2018-04-19T13:03:38.664Z,26.70
2018-04-19T13:06:04.451Z,26.77
2018-04-19T13:08:30.204Z,27.53
2018-04-19T13:10:55.948Z,27.21
2018-04-19T13:13:21.688Z,26.73
2018-04-19T13:15:47.438Z,26.54
2018-04-19T13:18:13.201Z,26.28
2018-04-19T13:20:38.944Z,26.82
2018-04-19T13:23:04.702Z,26.42
2018-04-19T13:25:30.477Z,27.13
2018-04-19T13:27:56.237Z,27.65
2018-04-19T13:30:21.990Z,27.63
2018-04-19T13:32:47.741Z,27.19
2018-04-19T13:35:13.500Z,27.13
2018-04-19T13:37:39.247Z,27.15
2018-04-19T13:40:05.008Z,27.48
2018-04-19T13:42:30.759Z,27.65
2018-04-19T13:44:56.523Z,27.57
2018-04-19T13:47:22.270Z,27.13
2018-04-19T13:49:48.038Z,26.92
2018-04-19T13:52:13.783Z,26.84
2018-04-19T13:54:39.551Z,26.73
2018-04-19T13:57:05.298Z,26.65
2018-04-19T13:59:31.048Z,26.78
2018-04-19T14:01:56.807Z,26.64
2018-04-19T14:04:22.540Z,26.56
2018-04-19T14:06:48.279Z,26.56
2018-04-19T14:09:14.033Z,26.53
2018-04-19T14:11:39.780Z,26.20
2018-04-19T14:14:05.525Z,26.16
2018-04-19T14:16:31.265Z,26.02
2018-04-19T14:18:57.028Z,26.00
2018-04-19T14:21:22.782Z,25.96
2018-04-19T14:23:48.525Z,26.15
2018-04-19T14:26:14.291Z,25.80
2018-04-19T14:28:40.038Z,25.85
2018-04-19T14:31:05.793Z,25.90
2018-04-19T14:33:31.544Z,26.12
2018-04-19T14:35:57.295Z,25.98
2018-04-19T14:38:23.063Z,25.89
2018-04-19T14:40:48.808Z,25.92
2018-04-19T14:43:14.557Z,25.85
2018-04-19T14:45:40.347Z,25.79
2018-04-19T14:48:06.093Z,25.80
2018-04-19T14:50:31.868Z,25.80
2018-04-19T14:52:57.604Z,25.73
2018-04-19T14:55:23.367Z,25.69
2018-04-19T14:57:49.894Z,25.56
2018-04-19T15:00:17.729Z,25.51
2018-04-19T15:02:43.630Z,25.66
2018-04-19T15:05:09.374Z,25.48
2018-04-19T15:07:35.131Z,25.55
2018-04-19T15:10:00.895Z,25.53
2018-04-19T15:12:26.645Z,25.54
2018-04-19T15:14:52.392Z,25.57
2018-04-19T15:17:18.137Z,25.39
2018-04-19T15:19:43.890Z,25.42
2018-04-19T15:22:09.632Z,25.29
2018-04-19T15:24:35.386Z,25.39
2018-04-19T15:27:01.133Z,25.37
2018-04-19T15:29:26.882Z,25.27
2018-04-19T15:31:52.659Z,25.39
2018-04-19T15:34:18.392Z,25.42
2018-04-19T15:36:44.185Z,25.45
2018-04-19T15:39:09.920Z,25.38
2018-04-19T15:41:35.704Z,25.36
2018-04-19T15:44:01.452Z,25.30
2018-04-19T15:46:27.196Z,25.20
2018-04-19T15:48:52.936Z,25.21
2018-04-19T15:51:18.688Z,25.17
2018-04-19T15:53:44.429Z,25.10
2018-04-19T15:56:10.172Z,25.18
2018-04-19T15:58:35.914Z,25.13
2018-04-19T16:01:01.664Z,25.06
2018-04-19T16:03:27.407Z,25.04
2018-04-19T16:05:53.180Z,24.98
2018-04-19T16:08:18.933Z,24.97
2018-04-19T16:10:44.690Z,24.89
2018-04-19T16:13:10.431Z,24.82
2018-04-19T16:15:36.177Z,24.82
2018-04-19T16:18:01.928Z,24.79
2018-04-19T16:20:27.685Z,24.81
2018-04-19T16:22:53.414Z,24.81
2018-04-19T16:25:19.165Z,24.78
2018-04-19T16:27:44.905Z,24.63
2018-04-19T16:30:10.653Z,24.40
2018-04-19T16:32:36.404Z,24.34
2018-04-19T16:35:02.213Z,24.21
2018-04-19T16:37:28.023Z,24.06
2018-04-19T16:39:53.716Z,23.99
2018-04-19T16:42:19.472Z,23.95
2018-04-19T16:44:45.265Z,23.79
2018-04-19T16:47:10.971Z,23.66
2018-04-19T16:49:37.141Z,23.58
2018-04-19T16:52:02.904Z,23.52
2018-04-19T16:54:28.642Z,23.45
2018-04-19T16:56:54.409Z,23.38
2018-04-19T16:59:20.148Z,23.26
2018-04-19T17:01:45.921Z,23.19
2018-04-19T17:04:11.654Z,23.16
2018-04-19T17:06:37.431Z,23.06
2018-04-19T17:09:03.185Z,22.95
2018-04-19T17:11:28.932Z,22.84
2018-04-19T17:13:54.828Z,22.72
2018-04-19T17:16:20.598Z,22.68
2018-04-19T17:18:46.327Z,22.57
2018-04-19T17:21:12.072Z,22.48
2018-04-19T17:23:37.820Z,22.38
2018-04-19T17:26:03.587Z,22.31
2018-04-19T17:28:29.323Z,22.24
2018-04-19T17:30:55.081Z,22.11
2018-04-19T17:33:20.825Z,21.97
2018-04-19T17:35:46.574Z,21.83
2018-04-19T17:38:12.313Z,21.73
2018-04-19T17:40:38.059Z,21.62
2018-04-19T17:43:03.811Z,21.50
2018-04-19T17:45:29.561Z,21.41
2018-04-19T17:47:55.302Z,21.30
2018-04-19T17:50:21.049Z,21.17
2018-04-19T17:52:46.859Z,21.07
2018-04-19T17:55:12.586Z,20.97
2018-04-19T17:57:38.339Z,20.89
2018-04-19T18:00:04.082Z,20.75
2018-04-19T18:02:29.836Z,20.63
2018-04-19T18:04:55.573Z,20.43
2018-04-19T18:07:21.329Z,20.37
2018-04-19T18:09:47.065Z,20.26
2018-04-19T18:12:12.830Z,20.11
2018-04-19T18:14:38.593Z,20.04
2018-04-19T18:17:04.354Z,19.95
2018-04-19T18:19:30.100Z,19.82
2018-04-19T18:21:55.849Z,19.61
2018-04-19T18:24:21.582Z,19.44
2018-04-19T18:26:47.341Z,19.35
2018-04-19T18:29:13.082Z,19.23
2018-04-19T18:31:38.844Z,19.09
2018-04-19T18:34:04.572Z,19.01
2018-04-19T18:36:30.325Z,18.84
2018-04-19T18:38:56.076Z,18.88
2018-04-19T18:41:21.820Z,18.76
2018-04-19T18:43:48.463Z,18.62
2018-04-19T18:46:14.276Z,18.50
2018-04-19T18:48:40.033Z,18.42
2018-04-19T18:51:05.797Z,18.36
2018-04-19T18:53:31.548Z,18.36
2018-04-19T18:55:57.277Z,18.22
2018-04-19T18:58:23.057Z,18.15
2018-04-19T19:00:48.785Z,18.05
2018-04-19T19:03:14.528Z,18.00
2018-04-19T19:05:40.270Z,17.87
2018-04-19T19:08:06.025Z,17.77
2018-04-19T19:10:31.772Z,17.72
2018-04-19T19:12:57.521Z,17.67
2018-04-19T19:18:46.652Z,17.42
2018-04-19T19:21:12.396Z,17.37
2018-04-19T19:23:38.157Z,17.32
2018-04-19T19:26:03.905Z,17.21
2018-04-19T19:28:29.648Z,17.13
2018-04-19T19:30:55.371Z,17.12
2018-04-19T19:33:21.124Z,17.08
2018-04-19T19:35:46.869Z,17.00
2018-04-19T19:38:12.602Z,16.93
2018-04-19T19:40:38.345Z,16.90
2018-04-19T19:43:04.092Z,16.79
2018-04-19T19:45:29.894Z,16.75
2018-04-19T19:47:55.601Z,16.72
2018-04-19T19:50:21.349Z,16.70
2018-04-19T19:52:47.117Z,16.74
2018-04-19T19:55:12.861Z,16.69
2018-04-19T19:57:38.637Z,16.71
2018-04-19T20:00:04.391Z,16.67
2018-04-19T20:02:30.250Z,16.54
2018-04-19T20:04:56.117Z,16.52
2018-04-19T20:07:21.869Z,16.49
2018-04-19T20:09:47.610Z,16.44
2018-04-19T20:12:13.369Z,16.40
2018-04-19T20:14:39.166Z,16.30
2018-04-19T20:17:05.109Z,16.24
2018-04-19T20:19:30.913Z,16.25
2018-04-19T20:21:56.623Z,16.28
2018-04-19T20:24:22.396Z,16.22
2018-04-19T20:26:48.129Z,16.17
2018-04-19T20:29:13.875Z,16.08
2018-04-19T20:31:39.615Z,15.94
2018-04-19T20:34:05.361Z,15.86
2018-04-19T20:36:31.091Z,15.76
2018-04-19T20:38:57.853Z,15.75
2018-04-19T20:41:24.458Z,15.73
2018-04-19T20:43:50.229Z,15.78
2018-04-19T20:46:15.984Z,15.86
2018-04-19T20:48:41.730Z,15.74
2018-04-19T20:51:07.642Z,15.70
2018-04-19T20:53:33.552Z,15.66
2018-04-19T20:55:59.291Z,15.42
2018-04-19T20:58:25.417Z,15.45
2018-04-19T21:00:51.205Z,15.49
2018-04-19T21:03:24.023Z,15.52
2018-04-19T21:05:49.992Z,15.45
2018-04-19T21:08:15.760Z,15.33
2018-04-19T21:10:41.613Z,15.30
2018-04-19T21:13:07.414Z,15.41
2018-04-19T21:15:33.144Z,15.28
2018-04-19T21:17:58.900Z,15.12
2018-04-19T21:20:24.849Z,14.96
2018-04-19T21:22:50.680Z,14.95
2018-04-19T21:25:16.412Z,14.97
2018-04-19T21:27:42.173Z,14.97
2018-04-19T21:30:07.932Z,14.98
2018-04-19T21:32:33.675Z,15.00
2018-04-19T21:34:59.419Z,14.95
2018-04-19T21:37:25.152Z,14.97
2018-04-19T21:39:50.891Z,14.88
2018-04-19T21:42:16.623Z,14.85
2018-04-19T21:44:42.367Z,14.77
2018-04-19T21:47:08.087Z,14.77
2018-04-19T21:49:33.845Z,14.73
2018-04-19T21:51:59.602Z,14.67
2018-04-19T21:54:25.354Z,14.68
2018-04-19T21:56:51.096Z,14.52
2018-04-19T21:59:16.842Z,14.49
2018-04-19T22:01:42.650Z,14.51
2018-04-19T22:04:08.356Z,14.49
2018-04-19T22:06:34.096Z,14.58
2018-04-19T22:08:59.846Z,14.50
2018-04-19T22:11:25.597Z,14.35
2018-04-19T22:13:51.332Z,14.34
2018-04-19T22:16:17.072Z,14.45
2018-04-19T22:18:42.816Z,14.43
2018-04-19T22:21:08.545Z,14.39
2018-04-19T22:23:34.300Z,14.40
2018-04-19T22:26:00.048Z,14.33
2018-04-19T22:28:25.804Z,14.22
2018-04-19T22:30:51.561Z,14.20
2018-04-19T22:33:17.318Z,14.10
2018-04-19T22:35:43.053Z,13.98
2018-04-19T22:38:08.798Z,13.95
2018-04-19T22:40:34.540Z,13.86
2018-04-19T22:43:00.668Z,13.83
2018-04-19T22:45:26.823Z,13.81
2018-04-19T22:47:52.933Z,13.82
2018-04-19T22:50:19.058Z,13.77
2018-04-19T22:52:45.185Z,13.77
2018-04-19T22:55:10.984Z,13.74
2018-04-19T22:57:36.736Z,13.71
2018-04-19T23:00:02.492Z,13.69
2018-04-19T23:02:28.229Z,13.58
2018-04-19T23:04:53.968Z,13.55
2018-04-19T23:07:19.688Z,13.44
2018-04-19T23:09:45.433Z,13.48
2018-04-19T23:12:11.177Z,13.45
2018-04-19T23:14:36.913Z,13.42
2018-04-19T23:17:02.661Z,13.34
2018-04-19T23:19:28.400Z,13.33
2018-04-19T23:21:54.128Z,13.26
2018-04-19T23:24:19.872Z,13.27
2018-04-19T23:26:45.599Z,13.32
2018-04-19T23:29:11.348Z,13.29
2018-04-19T23:31:37.092Z,13.27
2018-04-19T23:34:02.842Z,13.34
2018-04-19T23:36:28.567Z,13.46
2018-04-19T23:38:54.323Z,13.48
2018-04-19T23:41:20.057Z,13.51
2018-04-19T23:43:45.797Z,13.45
2018-04-19T23:46:11.559Z,13.37
2018-04-19T23:48:37.292Z,13.38
2018-04-19T23:51:03.048Z,13.27
2018-04-19T23:53:28.798Z,13.28
2018-04-19T23:55:54.552Z,13.33
2018-04-19T23:58:20.288Z,13.31
